createdAt,value
2023-04-09T00:00:32.010Z,21.67
2023-04-09T00:03:01.441Z,21.80
2023-04-09T00:05:29.528Z,22.00
2023-04-09T00:07:58.143Z,21.67
2023-04-09T00:10:26.173Z,22.43
2023-04-09T00:12:54.184Z,20.27
2023-04-09T00:15:30.517Z,22.10
2023-04-09T00:18:00.789Z,19.70
2023-04-09T00:20:28.816Z,23.13
2023-04-09T00:22:56.810Z,23.13
2023-04-09T00:25:24.766Z,23.50
2023-04-09T00:27:52.768Z,26.20
2023-04-09T00:30:21.390Z,30.27
2023-04-09T00:32:49.472Z,32.00
2023-04-09T00:35:18.810Z,29.23
2023-04-09T00:37:46.800Z,32.87
2023-04-09T00:40:15.003Z,30.13
2023-04-09T00:42:43.257Z,23.70
2023-04-09T00:45:12.021Z,29.43
2023-04-09T00:47:40.137Z,27.93
2023-04-09T00:50:09.002Z,27.37
2023-04-09T00:52:38.988Z,26.37
2023-04-09T00:55:08.146Z,25.80
2023-04-09T00:57:36.348Z,22.83
2023-04-09T01:00:07.132Z,22.83
2023-04-09T01:02:35.844Z,21.53
2023-04-09T01:05:04.272Z,22.17
2023-04-09T01:07:42.267Z,23.00
2023-04-09T01:10:20.086Z,25.27
2023-04-09T01:13:01.482Z,25.17
2023-04-09T01:15:36.212Z,26.67
2023-04-09T01:18:08.557Z,28.30
2023-04-09T01:20:41.479Z,29.60
2023-04-09T01:23:20.061Z,29.20
2023-04-09T01:26:01.542Z,31.60
2023-04-09T01:28:34.456Z,31.07
2023-04-09T01:31:05.460Z,28.57
2023-04-09T01:33:35.002Z,34.20
2023-04-09T01:36:05.671Z,32.10
2023-04-09T01:38:36.240Z,33.50
2023-04-09T01:41:05.438Z,29.00
2023-04-09T01:43:35.555Z,33.03
2023-04-09T01:46:04.254Z,34.97
2023-04-09T01:48:34.243Z,30.47
2023-04-09T01:51:02.796Z,31.27
2023-04-09T01:53:31.149Z,31.63
2023-04-09T01:56:01.222Z,33.07
2023-04-09T01:58:29.391Z,29.10
2023-04-09T02:01:05.015Z,30.63
2023-04-09T02:03:39.063Z,32.90
2023-04-09T02:06:14.545Z,32.23
2023-04-09T02:08:45.706Z,34.07
2023-04-09T02:11:15.801Z,29.63
2023-04-09T02:13:45.582Z,30.67
2023-04-09T02:16:16.591Z,30.80
2023-04-09T02:18:44.703Z,32.07
2023-04-09T02:21:13.721Z,32.10
2023-04-09T02:23:41.756Z,31.90
2023-04-09T02:26:09.820Z,29.77
2023-04-09T02:28:37.765Z,32.47
2023-04-09T02:31:06.161Z,31.20
2023-04-09T02:33:35.486Z,30.80
2023-04-09T02:36:03.614Z,33.90
2023-04-09T02:38:31.917Z,33.73
2023-04-09T02:40:59.940Z,34.20
2023-04-09T02:43:28.028Z,32.93
2023-04-09T02:45:55.975Z,33.60
2023-04-09T02:48:23.984Z,31.73
2023-04-09T02:50:53.263Z,30.30
2023-04-09T02:53:21.501Z,30.87
2023-04-09T02:55:49.475Z,29.77
2023-04-09T02:58:17.703Z,33.70
2023-04-09T03:00:45.650Z,32.17
2023-04-09T03:03:13.895Z,30.80
2023-04-09T03:05:42.140Z,31.60
2023-04-09T03:08:11.434Z,31.03
2023-04-09T03:10:39.374Z,28.63
2023-04-09T03:13:07.325Z,29.77
2023-04-09T03:15:35.312Z,34.60
2023-04-09T03:18:03.422Z,32.47
2023-04-09T03:20:31.396Z,33.80
2023-04-09T03:22:59.436Z,33.97
2023-04-09T03:25:28.750Z,31.90
2023-04-09T03:27:56.655Z,32.47
2023-04-09T03:30:24.779Z,31.77
2023-04-09T03:32:52.767Z,33.40
2023-04-09T03:35:20.747Z,32.23
2023-04-09T03:37:48.967Z,30.47
2023-04-09T03:40:17.176Z,30.00
2023-04-09T03:42:46.684Z,31.20
2023-04-09T03:45:14.638Z,31.07
2023-04-09T03:47:42.657Z,28.07
2023-04-09T03:50:11.379Z,30.53
2023-04-09T03:52:39.585Z,28.67
2023-04-09T03:55:08.883Z,30.20
2023-04-09T03:57:36.788Z,31.10
2023-04-09T04:00:07.724Z,29.07
2023-04-09T04:02:35.819Z,27.00
2023-04-09T04:05:04.463Z,26.70
2023-04-09T04:07:33.890Z,29.53
2023-04-09T04:10:02.054Z,30.40
2023-04-09T04:12:30.017Z,27.30
2023-04-09T04:14:57.927Z,26.63
2023-04-09T04:17:27.276Z,27.43
2023-04-09T04:19:55.340Z,26.93
2023-04-09T04:22:25.580Z,26.60
2023-04-09T04:24:54.143Z,26.10
2023-04-09T04:27:22.087Z,25.80
2023-04-09T04:29:50.042Z,26.83
2023-04-09T04:32:18.176Z,24.33
2023-04-09T04:34:50.248Z,23.63
2023-04-09T04:37:18.317Z,24.13
2023-04-09T04:39:46.242Z,24.57
2023-04-09T04:42:14.505Z,22.50
2023-04-09T04:44:42.457Z,22.13
2023-04-09T04:47:10.504Z,24.70
2023-04-09T04:49:38.417Z,26.30
2023-04-09T04:52:08.294Z,26.50
2023-04-09T04:54:36.332Z,26.77
2023-04-09T04:57:04.468Z,23.63
2023-04-09T04:59:32.418Z,25.03
2023-04-09T05:02:02.539Z,25.43
2023-04-09T05:04:30.625Z,25.23
2023-04-09T05:06:58.609Z,23.40
2023-04-09T05:09:27.933Z,26.37
2023-04-09T05:11:56.931Z,23.90
2023-04-09T05:14:25.328Z,25.00
2023-04-09T05:16:53.558Z,26.90
2023-04-09T05:19:21.552Z,24.87
2023-04-09T05:21:49.518Z,25.40
2023-04-09T05:24:17.477Z,26.37
2023-04-09T05:26:46.900Z,26.70
2023-04-09T05:29:14.942Z,26.63
2023-04-09T05:31:42.975Z,26.30
2023-04-09T05:34:11.253Z,29.07
2023-04-09T05:36:39.181Z,26.57
2023-04-09T05:39:07.129Z,28.73
2023-04-09T05:41:37.201Z,25.73
2023-04-09T05:44:06.781Z,26.70
2023-04-09T05:46:34.734Z,25.70
2023-04-09T05:49:03.301Z,24.37
2023-04-09T05:51:31.309Z,24.90
2023-04-09T05:53:59.493Z,24.50
2023-04-09T05:56:28.137Z,23.50
2023-04-09T05:58:56.098Z,23.60
2023-04-09T06:01:25.441Z,23.20
2023-04-09T06:03:56.097Z,22.33
2023-04-09T06:06:25.895Z,20.73
2023-04-09T06:08:53.955Z,21.53
2023-04-09T06:11:22.898Z,22.53
2023-04-09T06:13:51.105Z,20.13
2023-04-09T06:16:19.322Z,20.73
2023-04-09T06:18:50.744Z,22.87
2023-04-09T06:21:18.832Z,22.77
2023-04-09T06:23:46.816Z,24.07
2023-04-09T06:26:14.861Z,22.90
2023-04-09T06:28:43.202Z,22.70
2023-04-09T06:31:11.243Z,21.37
2023-04-09T06:33:39.230Z,22.03
2023-04-09T06:36:09.219Z,20.17
2023-04-09T06:38:37.171Z,20.83
2023-04-09T06:41:08.278Z,20.00
2023-04-09T06:43:37.401Z,19.17
2023-04-09T06:46:05.520Z,21.10
2023-04-09T06:48:34.162Z,21.30
2023-04-09T06:51:02.697Z,22.57
2023-04-09T06:53:32.422Z,20.77
2023-04-09T06:56:00.410Z,24.20
2023-04-09T06:58:28.373Z,20.10
2023-04-09T07:00:57.757Z,21.20
2023-04-09T07:03:27.803Z,22.50
2023-04-09T07:05:56.533Z,20.27
2023-04-09T07:08:24.609Z,22.00
2023-04-09T07:10:53.908Z,19.80
2023-04-09T07:13:21.966Z,22.90
2023-04-09T07:15:50.137Z,21.40
2023-04-09T07:18:18.070Z,23.20
2023-04-09T07:20:45.989Z,22.20
2023-04-09T07:23:13.990Z,21.47
2023-04-09T07:25:42.272Z,22.07
2023-04-09T07:28:11.705Z,22.27
2023-04-09T07:30:41.137Z,21.27
2023-04-09T07:33:09.110Z,21.37
2023-04-09T07:35:37.319Z,20.13
2023-04-09T07:38:05.283Z,21.50
2023-04-09T07:40:35.381Z,20.47
2023-04-09T07:43:03.467Z,21.63
2023-04-09T07:45:32.847Z,20.00
2023-04-09T07:48:01.067Z,21.33
2023-04-09T07:50:29.443Z,21.67
2023-04-09T07:52:57.398Z,22.20
2023-04-09T07:55:25.382Z,22.40
2023-04-09T07:57:53.284Z,21.10
2023-04-09T08:00:21.409Z,19.63
2023-04-09T08:02:50.874Z,20.20
2023-04-09T08:05:19.081Z,18.97
2023-04-09T08:07:47.048Z,20.13
2023-04-09T08:10:16.314Z,20.67
2023-04-09T08:12:44.850Z,20.40
2023-04-09T08:15:12.968Z,18.83
2023-04-09T08:17:41.319Z,20.50
2023-04-09T08:20:12.644Z,20.27
2023-04-09T08:22:42.086Z,20.13
2023-04-09T08:25:10.252Z,19.20
2023-04-09T08:27:39.616Z,20.27
2023-04-09T08:30:09.605Z,20.33
2023-04-09T08:32:37.649Z,21.13
2023-04-09T08:35:06.658Z,22.83
2023-04-09T08:37:36.036Z,20.43
2023-04-09T08:40:04.268Z,20.17
2023-04-09T08:42:35.568Z,21.63
2023-04-09T08:45:05.522Z,19.97
2023-04-09T08:47:35.202Z,21.30
2023-04-09T08:50:03.280Z,20.33
2023-04-09T08:52:33.317Z,22.43
2023-04-09T08:55:02.799Z,21.53
2023-04-09T08:57:31.138Z,20.97
2023-04-09T08:59:59.563Z,20.33
2023-04-09T09:02:27.836Z,22.23
2023-04-09T09:05:00.645Z,20.80
2023-04-09T09:07:30.391Z,20.67
2023-04-09T09:09:59.870Z,22.03
2023-04-09T09:12:37.165Z,21.30
2023-04-09T09:15:06.824Z,22.53
2023-04-09T09:17:53.877Z,21.03
2023-04-09T09:20:23.031Z,20.63
2023-04-09T09:22:54.737Z,20.60
2023-04-09T09:25:25.483Z,22.57
2023-04-09T09:27:55.305Z,21.17
2023-04-09T09:30:24.154Z,20.50
2023-04-09T09:32:54.670Z,21.33
2023-04-09T09:35:23.375Z,19.80
2023-04-09T09:38:03.068Z,21.50
2023-04-09T09:40:31.078Z,19.93
2023-04-09T09:43:00.617Z,21.33
2023-04-09T09:45:30.191Z,20.27
2023-04-09T09:47:58.194Z,20.60
2023-04-09T09:50:28.447Z,20.17
2023-04-09T09:53:04.723Z,21.20
2023-04-09T09:55:34.104Z,19.57
2023-04-09T09:58:11.934Z,21.57
2023-04-09T10:00:41.939Z,19.97
2023-04-09T10:03:17.049Z,21.70
2023-04-09T10:05:46.374Z,21.13
2023-04-09T10:08:14.692Z,21.00
2023-04-09T10:10:43.351Z,20.23
2023-04-09T10:13:19.458Z,21.70
2023-04-09T10:15:47.719Z,21.00
2023-04-09T10:18:16.834Z,21.97
2023-04-09T10:20:56.060Z,21.67
2023-04-09T10:23:33.618Z,20.70
2023-04-09T10:26:01.639Z,19.60
2023-04-09T10:28:32.101Z,22.30
2023-04-09T10:31:00.873Z,22.73
2023-04-09T10:33:29.379Z,19.70
2023-04-09T10:36:01.876Z,22.30
2023-04-09T10:38:37.703Z,20.23
2023-04-09T10:41:14.786Z,20.60
2023-04-09T10:43:45.100Z,21.03
2023-04-09T10:46:28.856Z,22.10
2023-04-09T10:49:13.627Z,22.67
2023-04-09T10:51:42.484Z,22.30
2023-04-09T10:54:43.785Z,22.47
2023-04-09T10:57:16.512Z,22.70
2023-04-09T10:59:46.911Z,21.83
2023-04-09T11:02:50.010Z,24.13
2023-04-09T11:05:27.086Z,21.90
2023-04-09T11:08:04.189Z,23.90
2023-04-09T11:10:32.651Z,23.97
2023-04-09T11:13:00.988Z,22.30
2023-04-09T11:15:30.722Z,23.90
2023-04-09T11:17:59.230Z,21.70
2023-04-09T11:20:27.758Z,22.40
2023-04-09T11:22:56.602Z,24.60
2023-04-09T11:25:26.639Z,21.43
2023-04-09T11:27:55.569Z,22.77
2023-04-09T11:30:23.754Z,22.70
2023-04-09T11:32:53.819Z,25.93
2023-04-09T11:35:23.659Z,24.00
2023-04-09T11:37:53.140Z,22.00
2023-04-09T11:40:22.330Z,24.23
2023-04-09T11:42:51.813Z,23.87
2023-04-09T11:45:21.623Z,23.30
2023-04-09T11:47:50.464Z,22.70
2023-04-09T11:50:21.307Z,22.67
2023-04-09T11:52:52.430Z,22.43
2023-04-09T11:55:27.566Z,23.83
2023-04-09T11:58:00.908Z,22.10
2023-04-09T12:00:29.949Z,21.53
2023-04-09T12:03:03.783Z,22.90
2023-04-09T12:05:35.193Z,22.50
2023-04-09T12:08:04.929Z,20.90
2023-04-09T12:10:34.349Z,19.77
2023-04-09T12:13:04.228Z,21.90
2023-04-09T12:15:37.000Z,22.87
2023-04-09T12:18:08.929Z,22.80
2023-04-09T12:20:39.858Z,22.03
2023-04-09T12:23:09.831Z,20.20
2023-04-09T12:25:38.928Z,23.10
2023-04-09T12:28:08.044Z,20.93
2023-04-09T12:30:36.528Z,16.80
2023-04-09T12:33:05.249Z,16.97
2023-04-09T12:35:34.426Z,17.30
2023-04-09T12:38:04.937Z,18.20
2023-04-09T12:40:32.995Z,17.60
2023-04-09T12:43:01.431Z,16.13
2023-04-09T12:45:30.782Z,18.23
2023-04-09T12:47:59.020Z,19.50
2023-04-09T12:50:27.176Z,20.23
2023-04-09T12:52:55.307Z,21.20
2023-04-09T12:55:24.694Z,20.73
2023-04-09T12:57:53.039Z,22.40
2023-04-09T13:00:21.059Z,21.73
2023-04-09T13:02:49.131Z,21.53
2023-04-09T13:05:17.134Z,19.23
2023-04-09T13:07:45.695Z,21.60
2023-04-09T13:10:13.819Z,22.60
2023-04-09T13:12:43.117Z,23.30
2023-04-09T13:15:12.222Z,21.80
2023-04-09T13:17:40.190Z,22.10
2023-04-09T13:20:09.444Z,20.00
2023-04-09T13:22:37.427Z,21.67
2023-04-09T13:25:06.206Z,22.80
2023-04-09T13:27:34.336Z,19.97
2023-04-09T13:30:03.904Z,19.63
2023-04-09T13:32:32.002Z,19.13
2023-04-09T13:34:59.992Z,19.27
2023-04-09T13:37:28.066Z,19.53
2023-04-09T13:39:56.430Z,19.57
2023-04-09T13:42:24.496Z,18.70
2023-04-09T13:44:52.450Z,20.37
2023-04-09T13:47:23.850Z,19.40
2023-04-09T13:49:52.995Z,21.23
2023-04-09T13:52:21.013Z,18.13
2023-04-09T13:54:49.372Z,19.33
2023-04-09T13:57:17.777Z,21.00
2023-04-09T13:59:45.759Z,20.03
2023-04-09T14:02:14.066Z,19.47
2023-04-09T14:04:43.647Z,17.20
2023-04-09T14:07:11.880Z,19.00
2023-04-09T14:09:39.936Z,17.03
2023-04-09T14:12:07.865Z,19.27
2023-04-09T14:14:35.869Z,18.67
2023-04-09T14:17:03.871Z,20.83
2023-04-09T14:19:31.848Z,20.33
2023-04-09T14:22:01.169Z,18.13
2023-04-09T14:24:29.264Z,23.53
2023-04-09T14:26:57.588Z,20.73
2023-04-09T14:29:25.825Z,21.57
2023-04-09T14:31:55.978Z,21.10
2023-04-09T14:34:25.381Z,19.40
2023-04-09T14:36:53.406Z,21.03
2023-04-09T14:39:22.702Z,19.70
2023-04-09T14:41:50.647Z,20.10
2023-04-09T14:44:18.819Z,20.60
2023-04-09T14:46:46.938Z,20.43
2023-04-09T14:49:15.366Z,19.60
2023-04-09T14:51:43.409Z,19.40
2023-04-09T14:54:11.438Z,16.93
2023-04-09T14:56:40.988Z,18.50
2023-04-09T14:59:08.950Z,18.50
2023-04-09T15:01:36.985Z,17.57
2023-04-09T15:04:05.056Z,14.60
2023-04-09T15:06:33.332Z,12.93
2023-04-09T15:09:01.515Z,11.80
2023-04-09T15:11:29.496Z,13.00
2023-04-09T15:13:58.808Z,13.37
2023-04-09T15:16:29.124Z,13.27
2023-04-09T15:18:59.036Z,14.23
2023-04-09T15:21:27.678Z,14.70
2023-04-09T15:23:56.221Z,15.07
2023-04-09T15:26:24.250Z,14.93
2023-04-09T15:28:53.561Z,15.63
2023-04-09T15:31:23.092Z,14.27
2023-04-09T15:33:51.285Z,14.40
2023-04-09T15:36:19.329Z,13.40
2023-04-09T15:38:47.380Z,13.37
2023-04-09T15:41:17.007Z,13.53
2023-04-09T15:43:44.973Z,12.80
2023-04-09T15:46:13.071Z,11.90
2023-04-09T15:48:42.784Z,12.33
2023-04-09T15:51:10.966Z,12.73
2023-04-09T15:53:39.090Z,14.03
2023-04-09T15:56:08.548Z,14.50
2023-04-09T15:58:37.809Z,14.50
2023-04-09T16:01:08.071Z,14.67
2023-04-09T16:03:39.669Z,13.60
2023-04-09T16:06:10.456Z,13.40
2023-04-09T16:08:39.855Z,16.23
2023-04-09T16:11:08.665Z,16.77
2023-04-09T16:13:37.159Z,16.63
2023-04-09T16:16:06.754Z,19.10
2023-04-09T16:18:35.448Z,17.80
2023-04-09T16:21:04.244Z,18.00
2023-04-09T16:23:33.664Z,15.37
2023-04-09T16:26:01.688Z,17.07
2023-04-09T16:28:29.635Z,16.33
2023-04-09T16:30:57.625Z,14.43
2023-04-09T16:33:25.623Z,14.27
2023-04-09T16:35:53.633Z,14.57
2023-04-09T16:38:23.540Z,15.10
2023-04-09T16:40:52.914Z,14.60
2023-04-09T16:43:20.867Z,14.93
2023-04-09T16:45:48.897Z,14.73
2023-04-09T16:48:16.910Z,15.97
2023-04-09T16:50:45.009Z,15.67
2023-04-09T16:53:13.139Z,15.10
2023-04-09T16:55:41.581Z,15.73
2023-04-09T16:58:11.180Z,15.20
2023-04-09T17:00:39.998Z,13.90
2023-04-09T17:03:08.292Z,13.20
2023-04-09T17:05:36.793Z,14.07
2023-04-09T17:08:06.265Z,13.07
2023-04-09T17:10:34.325Z,13.60
2023-04-09T17:13:02.429Z,13.33
2023-04-09T17:15:32.063Z,13.00
2023-04-09T17:18:00.425Z,15.13
2023-04-09T17:20:29.872Z,14.90
2023-04-09T17:22:57.993Z,14.23
2023-04-09T17:25:26.209Z,14.23
2023-04-09T17:27:54.793Z,14.90
2023-04-09T17:30:22.938Z,13.63
2023-04-09T17:32:52.943Z,14.87
2023-04-09T17:35:22.196Z,13.70
2023-04-09T17:37:51.464Z,14.80
2023-04-09T17:40:20.205Z,15.60
2023-04-09T17:42:48.337Z,15.33
2023-04-09T17:45:16.612Z,14.37
2023-04-09T17:47:45.623Z,14.10
2023-04-09T17:50:15.527Z,12.30
2023-04-09T17:52:43.600Z,13.40
2023-04-09T17:55:13.177Z,13.63
2023-04-09T17:57:41.766Z,16.13
2023-04-09T18:00:11.097Z,14.40
2023-04-09T18:02:39.370Z,16.47
2023-04-09T18:05:08.417Z,14.57
2023-04-09T18:07:38.614Z,14.63
2023-04-09T18:10:07.535Z,14.60
2023-04-09T18:12:35.618Z,16.80
2023-04-09T18:15:04.239Z,15.00
2023-04-09T18:17:32.303Z,13.77
2023-04-09T18:20:00.464Z,14.23
2023-04-09T18:22:28.509Z,15.00
2023-04-09T18:24:57.909Z,17.17
2023-04-09T18:27:26.078Z,14.90
2023-04-09T18:29:54.096Z,14.30
2023-04-09T18:32:22.248Z,13.70
2023-04-09T18:34:52.046Z,13.47
2023-04-09T18:37:20.458Z,13.67
2023-04-09T18:39:48.644Z,14.73
2023-04-09T18:42:18.064Z,16.33
2023-04-09T18:44:46.053Z,13.67
2023-04-09T18:47:14.095Z,14.63
2023-04-09T18:49:42.019Z,13.40
2023-04-09T18:52:10.291Z,14.70
2023-04-09T18:54:38.775Z,17.17
2023-04-09T18:57:07.427Z,20.30
2023-04-09T18:59:37.184Z,41.23
2023-04-09T19:02:06.061Z,40.43
2023-04-09T19:04:36.340Z,38.10
2023-04-09T19:07:04.671Z,35.80
2023-04-09T19:09:33.510Z,29.77
2023-04-09T19:12:02.028Z,24.73
2023-04-09T19:14:30.346Z,23.27
2023-04-09T19:16:59.778Z,16.97
2023-04-09T19:19:28.978Z,15.60
2023-04-09T19:21:57.295Z,16.10
2023-04-09T19:24:25.913Z,14.17
2023-04-09T19:26:53.892Z,15.23
2023-04-09T19:29:22.009Z,14.00
2023-04-09T19:31:50.047Z,16.20
2023-04-09T19:34:19.412Z,15.60
2023-04-09T19:36:47.354Z,14.10
2023-04-09T19:39:15.518Z,14.40
2023-04-09T19:41:43.544Z,14.33
2023-04-09T19:44:11.778Z,15.00
2023-04-09T19:46:39.873Z,15.67
2023-04-09T19:49:07.894Z,16.60
2023-04-09T19:51:37.293Z,14.80
2023-04-09T19:54:05.319Z,21.43
2023-04-09T19:56:33.304Z,15.50
2023-04-09T19:59:02.169Z,14.33
2023-04-09T20:01:30.287Z,13.20
2023-04-09T20:03:58.568Z,14.40
2023-04-09T20:06:27.095Z,14.83
2023-04-09T20:08:56.400Z,14.00
2023-04-09T20:11:24.384Z,13.20
2023-04-09T20:13:52.658Z,14.47
2023-04-09T20:16:20.673Z,15.40
2023-04-09T20:18:48.656Z,15.37
2023-04-09T20:21:16.645Z,13.03
2023-04-09T20:23:45.613Z,15.90
2023-04-09T20:26:14.967Z,17.00
2023-04-09T20:28:42.956Z,13.70
2023-04-09T20:31:10.958Z,16.97
2023-04-09T20:33:38.953Z,17.50
2023-04-09T20:36:15.926Z,16.90
2023-04-09T20:38:44.328Z,17.80
2023-04-09T20:41:12.283Z,17.70
2023-04-09T20:43:41.575Z,15.30
2023-04-09T20:46:09.635Z,15.23
2023-04-09T20:48:37.758Z,17.43
2023-04-09T20:51:10.921Z,17.80
2023-04-09T20:53:39.123Z,17.20
2023-04-09T20:56:09.020Z,15.97
2023-04-09T20:58:37.200Z,17.00
2023-04-09T21:01:08.113Z,17.43
2023-04-09T21:03:36.771Z,17.30
2023-04-09T21:06:05.357Z,15.30
2023-04-09T21:08:33.476Z,16.07
2023-04-09T21:11:02.082Z,15.80
2023-04-09T21:13:33.655Z,16.37
2023-04-09T21:16:09.681Z,15.57
2023-04-09T21:18:37.602Z,19.50
2023-04-09T21:21:08.168Z,16.70
2023-04-09T21:23:36.220Z,16.80
2023-04-09T21:26:05.304Z,16.63
2023-04-09T21:28:33.242Z,14.57
2023-04-09T21:31:01.147Z,15.77
2023-04-09T21:33:30.803Z,14.70
2023-04-09T21:35:58.732Z,16.03
2023-04-09T21:38:26.984Z,15.87
2023-04-09T21:40:54.902Z,15.80
2023-04-09T21:43:22.902Z,15.10
2023-04-09T21:45:51.563Z,15.83
2023-04-09T21:48:19.497Z,16.40
2023-04-09T21:50:48.800Z,16.80
2023-04-09T21:53:17.227Z,16.70
2023-04-09T21:55:45.336Z,16.63
2023-04-09T21:58:13.263Z,16.67
2023-04-09T22:00:41.304Z,15.83
2023-04-09T22:03:09.537Z,15.37
2023-04-09T22:05:37.645Z,15.97
2023-04-09T22:08:07.233Z,17.00
2023-04-09T22:10:35.417Z,16.90
2023-04-09T22:13:03.357Z,17.03
2023-04-09T22:15:31.390Z,20.33
2023-04-09T22:17:59.405Z,20.10
2023-04-09T22:20:27.557Z,18.50
2023-04-09T22:22:55.808Z,18.43
2023-04-09T22:25:25.493Z,17.90
2023-04-09T22:27:53.797Z,18.47
2023-04-09T22:30:23.647Z,16.70
2023-04-09T22:32:52.160Z,17.20
2023-04-09T22:35:20.475Z,17.03
2023-04-09T22:37:48.521Z,17.40
2023-04-09T22:40:16.942Z,16.80
2023-04-09T22:42:47.979Z,16.70
2023-04-09T22:45:16.025Z,15.13
2023-04-09T22:47:44.111Z,14.83
2023-04-09T22:50:13.708Z,16.50
2023-04-09T22:52:41.705Z,17.63
2023-04-09T22:55:10.966Z,16.80
2023-04-09T22:57:41.013Z,15.60
2023-04-09T23:00:11.296Z,17.33
2023-04-09T23:02:39.401Z,17.80
2023-04-09T23:05:08.607Z,17.20
2023-04-09T23:07:36.585Z,17.80
2023-04-09T23:10:04.578Z,18.30
2023-04-09T23:12:32.547Z,16.50
2023-04-09T23:15:00.631Z,17.60
2023-04-09T23:17:30.005Z,15.60
2023-04-09T23:19:57.966Z,16.73
2023-04-09T23:22:27.180Z,16.63
2023-04-09T23:24:55.110Z,17.70
2023-04-09T23:27:28.179Z,15.57
2023-04-09T23:29:57.011Z,16.10
2023-04-09T23:32:25.132Z,16.80
2023-04-09T23:34:56.529Z,18.57
2023-04-09T23:37:24.511Z,16.93
2023-04-09T23:39:52.841Z,17.30
2023-04-09T23:42:21.176Z,17.47
2023-04-09T23:44:50.241Z,16.90
2023-04-09T23:47:18.393Z,19.03
2023-04-09T23:49:46.668Z,17.97
2023-04-09T23:52:16.036Z,18.60
2023-04-09T23:54:51.013Z,18.30
2023-04-09T23:57:19.064Z,18.20
2023-04-09T23:59:47.063Z,18.07
